Time;durP1;ratioP1;P1;durP2;ratioP2;P2;SDS_P1;SDS_P2;PMS_P1;PMS_P2;Temp;Humidity;BMP_temperature;BMP_pressure;BME280_temperature;BME280_humidity;BME280_pressure;Samples;Min_cycle;Max_cycle;Signal;HPM_P1;HPM_P2
2024/01/27 00:00:25;;;;;;;;;38.20;33.60;;;;;13.54;89.66;103016.91;2099702;27;46013;-67
2024/01/27 00:01:25;;;;;;;;;37.50;33.50;;;;;13.54;89.90;103010.69;2097702;28;46410;-67
2024/01/27 00:02:26;;;;;;;;;43.00;35.75;;;;;13.51;90.22;103021.34;2096989;28;46546;-67
2024/01/27 00:03:26;;;;;;;;;43.50;36.25;;;;;13.48;90.10;103024.03;2097108;28;46074;-67
2024/01/27 00:04:26;;;;;;;;;35.25;31.50;;;;;13.50;90.05;103020.47;2097184;28;45034;-66
2024/01/27 00:05:28;;;;;;;;;40.50;34.50;;;;;13.50;90.26;103017.78;2091386;28;46351;-66
2024/01/27 00:06:28;;;;;;;;;40.60;34.00;;;;;13.50;90.75;103024.91;2094284;28;45526;-65
2024/01/27 00:07:28;;;;;;;;;37.50;31.75;;;;;13.51;90.83;103016.03;2095541;28;46845;-67
2024/01/27 00:08:29;;;;;;;;;36.25;33.00;;;;;13.46;91.09;103018.66;2096079;28;46486;-65
2024/01/27 00:09:29;;;;;;;;;41.25;35.00;;;;;13.51;91.27;103019.56;2096410;28;46844;-66
2024/01/27 00:10:30;;;;;;;;;39.50;34.50;;;;;13.51;91.33;103018.69;2097134;28;45934;-66
2024/01/27 00:11:30;;;;;;;;;46.25;36.00;;;;;13.50;91.52;103022.25;2096622;28;46553;-66
2024/01/27 00:12:31;;;;;;;;;36.00;33.00;;;;;13.52;91.31;103024.03;2088709;28;46261;-66
2024/01/27 00:13:31;;;;;;;;;37.00;32.25;;;;;13.53;90.76;103016.91;2087869;28;46813;-66
2024/01/27 00:14:31;;;;;;;;;40.25;35.00;;;;;13.50;91.00;103022.25;2095643;28;45241;-66
2024/01/27 00:15:32;;;;;;;;;1.50;0.00;;;;;13.48;91.23;103008.91;2097121;28;46217;-66
2024/01/27 00:16:32;;;;;;;;;32.50;31.50;;;;;13.47;91.22;103015.13;2096959;28;46216;-65
2024/01/27 00:17:34;;;;;;;;;35.75;32.75;;;;;13.48;91.27;103018.69;2096833;28;46952;-66
2024/01/27 00:18:37;;;;;;;;;35.60;31.80;;;;;13.48;91.48;103016.03;2095364;28;46495;-66
2024/01/27 00:19:38;;;;;;;;;33.60;31.60;;;;;13.47;91.57;103017.78;2096534;28;45855;-65
2024/01/27 00:20:38;;;;;;;;;39.75;34.25;;;;;13.47;91.62;103023.13;2096970;28;46972;-66
2024/01/27 00:21:38;;;;;;;;;39.25;34.50;;;;;13.48;91.67;103018.69;2096527;28;46187;-65
2024/01/27 00:22:39;;;;;;;;;41.25;34.25;;;;;13.49;91.93;103020.47;2096423;28;45911;-65
2024/01/27 00:23:40;;;;;;;;;26.00;24.00;;;;;13.51;91.56;103024.03;2096776;28;46759;-65
2024/01/27 00:24:41;;;;;;;;;35.40;31.20;;;;;13.48;91.26;103027.56;2097084;28;45776;-66
2024/01/27 00:25:42;;;;;;;;;35.25;31.75;;;;;13.45;91.47;103030.22;2096990;28;46795;-66
2024/01/27 00:26:43;;;;;;;;;40.00;34.20;;;;;13.46;91.37;103033.75;2096944;28;46834;-65
2024/01/27 00:27:43;;;;;;;;;39.60;33.40;;;;;13.45;91.51;103030.22;2086529;28;47910;-68
2024/01/27 00:28:44;;;;;;;;;35.50;33.00;;;;;13.39;91.52;103026.66;2078860;28;45866;-65
2024/01/27 00:29:44;;;;;;;;;40.00;35.00;;;;;13.37;91.67;103025.75;2100870;28;45380;-67
2024/01/27 00:30:44;;;;;;;;;39.75;34.25;;;;;13.39;91.80;103034.66;2102215;27;47143;-66
2024/01/27 00:31:45;;;;;;;;;38.25;34.00;;;;;13.38;92.19;103031.09;2096572;28;46555;-65
2024/01/27 00:32:45;;;;;;;;;30.75;29.75;;;;;13.41;92.11;103035.53;2096604;28;46510;-66
2024/01/27 00:33:45;;;;;;;;;39.75;33.50;;;;;13.40;92.11;103037.31;2097040;28;46062;-66
2024/01/27 00:34:46;;;;;;;;;40.25;34.50;;;;;13.41;92.17;103044.44;2096656;28;46712;-66
2024/01/27 00:35:46;;;;;;;;;35.00;32.50;;;;;13.42;92.31;103038.22;2096881;28;46745;-65
2024/01/27 00:36:48;;;;;;;;;41.00;34.50;;;;;13.41;92.38;103041.75;2097005;28;46657;-65
2024/01/27 00:37:49;;;;;;;;;34.40;31.60;;;;;13.40;92.24;103034.66;2096584;28;46456;-66
2024/01/27 00:38:49;;;;;;;;;33.50;32.50;;;;;13.40;92.31;103034.66;2096271;28;46333;-66
2024/01/27 00:39:49;;;;;;;;;26.75;26.75;;;;;13.43;92.34;103037.31;2096259;28;46216;-66
2024/01/27 00:40:49;;;;;;;;;35.50;30.75;;;;;13.43;92.58;103034.66;2096663;28;48305;-67
2024/01/27 00:41:51;;;;;;;;;32.75;30.25;;;;;13.45;92.47;103030.22;2096595;28;46576;-66
2024/01/27 00:42:51;;;;;;;;;35.80;32.40;;;;;13.46;92.47;103015.09;2103002;28;46768;-65
2024/01/27 00:43:52;;;;;;;;;33.50;31.50;;;;;13.47;92.03;103030.25;2103233;28;46527;-66
2024/01/27 00:44:52;;;;;;;;;36.50;30.75;;;;;13.44;92.23;103011.53;2105370;27;46885;-66
2024/01/27 00:45:52;;;;;;;;;35.50;32.00;;;;;13.43;92.35;103024.00;2103303;27;47364;-66
2024/01/27 00:46:53;;;;;;;;;33.25;30.75;;;;;13.45;92.47;103024.88;2104023;27;46657;-66
2024/01/27 00:47:53;;;;;;;;;32.25;29.25;;;;;13.46;92.57;103023.09;2095985;28;45046;-66
2024/01/27 00:48:53;;;;;;;;;34.75;31.50;;;;;13.46;92.20;103024.00;2097455;28;46634;-65
2024/01/27 00:49:54;;;;;;;;;33.00;32.00;;;;;13.44;91.79;103028.44;2096967;28;46213;-65
2024/01/27 00:50:54;;;;;;;;;25.25;23.25;;;;;13.42;91.85;103026.66;2096105;28;46364;-66
2024/01/27 00:51:55;;;;;;;;;34.00;31.25;;;;;13.41;92.00;103027.53;2094472;28;46642;-66
2024/01/27 00:52:55;;;;;;;;;29.75;28.75;;;;;13.41;91.77;103027.53;2096851;28;46820;-67
2024/01/27 00:53:55;;;;;;;;;30.50;30.00;;;;;13.43;91.82;103031.09;2100508;28;46494;-66
2024/01/27 00:54:56;;;;;;;;;31.50;29.25;;;;;13.42;91.92;103021.31;2104669;27;46112;-66
2024/01/27 00:55:56;;;;;;;;;29.75;28.00;;;;;13.41;91.69;103027.53;2096902;28;46331;-66
2024/01/27 00:56:56;;;;;;;;;29.25;28.75;;;;;13.39;91.66;103024.88;2096622;28;46616;-66
2024/01/27 00:57:57;;;;;;;;;32.75;31.00;;;;;13.39;91.66;103015.97;2093726;28;46195;-66
2024/01/27 00:58:57;;;;;;;;;28.50;28.25;;;;;13.35;91.90;103014.19;2103445;27;45707;-66
2024/01/27 00:59:57;;;;;;;;;31.00;29.50;;;;;13.35;92.29;103020.41;2095389;28;46384;-66
2024/01/27 01:00:58;;;;;;;;;32.25;29.75;;;;;13.36;92.25;103016.88;2096103;28;46419;-66
2024/01/27 01:01:58;;;;;;;;;29.50;27.75;;;;;13.37;92.38;103023.09;2096630;28;46540;-66
2024/01/27 01:02:59;;;;;;;;;30.00;27.75;;;;;13.36;92.27;103024.88;2095440;28;46388;-66
2024/01/27 01:03:59;;;;;;;;;24.75;21.75;;;;;13.34;92.28;103025.72;2097148;28;45666;-66
2024/01/27 01:05:00;;;;;;;;;34.00;31.50;;;;;13.36;92.73;103021.31;2096432;28;46784;-66
2024/01/27 01:06:00;;;;;;;;;34.50;30.00;;;;;13.35;92.62;103020.41;2097058;28;46013;-66
2024/01/27 01:07:01;;;;;;;;;25.75;23.75;;;;;13.38;92.94;103024.88;2090082;28;46551;-67
2024/01/27 01:08:01;;;;;;;;;29.75;29.50;;;;;13.40;92.87;103026.66;2083579;28;46657;-66
2024/01/27 01:09:02;;;;;;;;;31.25;29.00;;;;;13.38;92.72;103023.09;2087246;28;46745;-66
2024/01/27 01:10:02;;;;;;;;;31.00;29.00;;;;;13.37;92.46;103021.31;2096607;28;46189;-65
2024/01/27 01:11:03;;;;;;;;;35.00;31.25;;;;;13.38;92.81;103016.88;2096480;28;46839;-66
2024/01/27 01:12:04;;;;;;;;;35.00;32.50;;;;;13.38;92.88;103015.09;2096726;28;46680;-67
2024/01/27 01:13:04;;;;;;;;;29.60;29.60;;;;;13.37;92.49;103015.97;2100607;28;46644;-66
2024/01/27 01:14:05;;;;;;;;;33.50;30.50;;;;;13.35;92.63;103016.88;2094551;28;46315;-66
2024/01/27 01:15:05;;;;;;;;;30.75;30.75;;;;;13.32;92.85;103017.72;2095713;28;46405;-66
2024/01/27 01:16:07;;;;;;;;;37.00;32.50;;;;;13.29;93.18;103012.38;2096576;28;46275;-66
2024/01/27 01:17:08;;;;;;;;;35.60;33.20;;;;;13.27;93.09;103013.28;2096819;28;45099;-66
2024/01/27 01:18:08;;;;;;;;;32.50;28.75;;;;;13.25;93.30;103015.94;2100037;27;46519;-65
2024/01/27 01:19:08;;;;;;;;;35.75;32.25;;;;;13.22;93.20;103003.50;2098579;28;47211;-66
2024/01/27 01:20:09;;;;;;;;;34.75;29.50;;;;;13.21;93.22;103006.13;2096899;28;46667;-64
2024/01/27 01:21:10;;;;;;;;;34.75;32.50;;;;;13.22;93.49;103003.50;2096477;28;47281;-66
2024/01/27 01:22:10;;;;;;;;;33.00;31.00;;;;;13.24;93.70;103000.81;2096622;28;45400;-66
2024/01/27 01:23:10;;;;;;;;;34.00;32.00;;;;;13.23;93.83;103005.25;2096246;28;46441;-66
2024/01/27 01:24:11;;;;;;;;;36.25;32.25;;;;;13.28;94.02;103001.72;2096293;28;46192;-65
2024/01/27 01:25:11;;;;;;;;;34.00;32.25;;;;;13.33;94.05;103002.59;2096536;28;49036;-66
2024/01/27 01:26:12;;;;;;;;;35.50;33.00;;;;;13.36;94.09;102995.53;2096544;28;46439;-65
2024/01/27 01:27:12;;;;;;;;;34.00;31.25;;;;;13.39;93.93;102995.53;2095986;28;46208;-66
2024/01/27 01:28:12;;;;;;;;;34.25;33.00;;;;;13.38;94.05;103000.88;2095860;28;46518;-66
2024/01/27 01:29:13;;;;;;;;;32.75;31.25;;;;;13.38;93.77;103004.41;2097580;28;46746;-65
2024/01/27 01:30:13;;;;;;;;;34.75;32.75;;;;;13.40;93.92;103002.66;2097222;28;46296;-66
2024/01/27 01:31:14;;;;;;;;;34.00;31.25;;;;;13.40;94.01;102999.09;2096389;28;46920;-65
2024/01/27 01:32:15;;;;;;;;;32.25;31.00;;;;;13.41;93.80;102998.19;2095711;28;46405;-66
2024/01/27 01:33:15;;;;;;;;;34.40;33.00;;;;;13.40;93.78;102991.09;2096487;28;45809;-68
2024/01/27 01:34:16;;;;;;;;;37.75;33.50;;;;;13.40;93.79;103001.75;2096649;28;46533;-67
2024/01/27 01:35:16;;;;;;;;;37.00;32.75;;;;;13.37;93.87;102999.97;2095730;28;46802;-66
2024/01/27 01:36:16;;;;;;;;;37.75;30.25;;;;;13.36;93.88;102998.19;2096552;28;46651;-65
2024/01/27 01:37:16;;;;;;;;;38.25;33.25;;;;;13.36;93.97;102999.97;2096494;28;48113;-65
2024/01/27 01:38:17;;;;;;;;;37.75;32.25;;;;;13.37;93.68;102999.97;2096660;28;46950;-66
2024/01/27 01:39:17;;;;;;;;;31.50;29.75;;;;;13.36;94.09;102991.97;2095789;28;46623;-66
2024/01/27 01:40:17;;;;;;;;;28.75;25.50;;;;;13.36;94.14;102999.97;2096470;28;46576;-65
2024/01/27 01:41:18;;;;;;;;;32.50;29.00;;;;;13.35;93.97;102998.19;2096875;28;46238;-66
2024/01/27 01:42:20;;;;;;;;;37.00;33.25;;;;;13.35;94.14;103000.88;2096440;28;46353;-65
2024/01/27 01:43:20;;;;;;;;;30.20;26.40;;;;;13.33;94.34;102994.59;2096755;28;45785;-66
2024/01/27 01:44:21;;;;;;;;;32.00;31.50;;;;;13.49;93.95;102993.78;2096512;28;45982;-66
2024/01/27 01:45:21;;;;;;;;;39.25;34.00;;;;;13.49;93.65;102992.00;2096505;28;46667;-65
2024/01/27 01:46:23;;;;;;;;;32.75;31.25;;;;;13.45;93.60;102992.88;2096463;28;46395;-66
2024/01/27 01:47:24;;;;;;;;;31.00;28.20;;;;;13.47;93.61;102998.25;2095864;28;45344;-65
2024/01/27 01:48:25;;;;;;;;;37.20;33.40;;;;;13.47;93.51;102996.47;2096029;28;46340;-67
2024/01/27 01:49:26;;;;;;;;;41.40;36.80;;;;;13.59;93.29;102995.56;2096694;28;46494;-66
2024/01/27 01:50:27;;;;;;;;;40.50;36.00;;;;;13.54;92.92;102998.22;2096406;28;46409;-67
2024/01/27 01:51:27;;;;;;;;;39.25;36.25;;;;;13.50;92.64;102996.47;2096474;28;45887;-66
2024/01/27 01:52:28;;;;;;;;;40.75;33.75;;;;;13.49;92.99;102997.34;2095348;28;45412;-67
2024/01/27 01:53:28;;;;;;;;;43.25;36.00;;;;;13.49;93.06;102992.00;2096573;28;46314;-66
2024/01/27 01:54:30;;;;;;;;;40.75;33.25;;;;;13.45;93.62;102995.53;2096895;28;45476;-67
2024/01/27 01:55:31;;;;;;;;;38.20;34.20;;;;;13.43;93.37;102989.31;2096264;28;46299;-67
2024/01/27 01:56:31;;;;;;;;;32.50;31.25;;;;;13.37;93.64;102993.75;2096444;28;46846;-66
2024/01/27 01:57:33;;;;;;;;;37.00;32.50;;;;;13.36;94.00;102990.19;2096657;28;46506;-67
2024/01/27 01:58:34;;;;;;;;;36.40;33.60;;;;;13.41;93.61;102992.88;2092757;28;46605;-66
2024/01/27 01:59:40;;;;;;;;;26.75;26.00;;;;;13.36;93.70;102995.53;2095391;28;46303;-66
2024/01/27 02:00:40;;;;;;;;;27.20;26.80;;;;;13.32;93.78;102993.72;2094629;28;47181;-67
2024/01/27 02:01:41;;;;;;;;;28.50;28.25;;;;;13.25;94.12;102990.16;2099309;28;46632;-67
2024/01/27 02:02:47;;;;;;;;;27.50;27.00;;;;;13.23;94.10;102999.03;2096268;28;46515;-66
2024/01/27 02:03:54;;;;;;;;;35.20;32.20;;;;;13.23;94.49;102999.03;2096611;28;46755;-67
2024/01/27 02:04:54;;;;;;;;;37.20;33.40;;;;;13.23;94.79;102997.25;2096456;28;46596;-67
2024/01/27 02:05:55;;;;;;;;;29.25;29.00;;;;;13.22;94.77;103002.59;2096471;28;46296;-66
2024/01/27 02:06:55;;;;;;;;;34.50;31.25;;;;;13.21;95.15;103001.72;2096479;28;46469;-66
2024/01/27 02:07:59;;;;;;;;;33.25;31.00;;;;;13.19;94.94;103005.22;2096014;28;46842;-66
2024/01/27 02:08:59;;;;;;;;;35.20;32.80;;;;;13.15;94.80;103000.75;2096451;28;46749;-66
2024/01/27 02:09:59;;;;;;;;;35.25;31.50;;;;;13.15;94.81;103006.97;2096916;28;46823;-66
2024/01/27 02:11:02;;;;;;;;;31.50;28.25;;;;;13.14;94.92;103006.97;2097184;28;45576;-65
2024/01/27 02:12:03;;;;;;;;;33.80;31.80;;;;;12.99;95.36;103013.13;2095971;28;46918;-66
2024/01/27 02:13:05;;;;;;;;;36.00;33.75;;;;;12.99;96.03;103014.91;2096046;28;46836;-67
2024/01/27 02:14:06;;;;;;;;;33.00;31.80;;;;;12.99;95.97;103012.22;2095245;28;46418;-66
2024/01/27 02:15:12;;;;;;;;;34.50;32.25;;;;;12.96;96.15;103011.34;2096508;28;47013;-66
2024/01/27 02:16:12;;;;;;;;;35.40;32.40;;;;;12.94;96.15;103009.53;2095738;28;46368;-66
2024/01/27 02:17:12;;;;;;;;;31.75;31.00;;;;;12.90;96.21;103015.72;2095952;28;46755;-65
2024/01/27 02:18:13;;;;;;;;;36.50;32.00;;;;;12.90;96.69;103008.63;2090785;28;46686;-66
2024/01/27 02:19:13;;;;;;;;;33.75;32.75;;;;;12.89;97.13;103009.50;2091723;28;46973;-66
2024/01/27 02:20:14;;;;;;;;;32.75;30.50;;;;;12.91;96.89;103002.41;2096605;28;46099;-66
2024/01/27 02:21:14;;;;;;;;;27.00;26.25;;;;;12.89;97.06;102997.97;2100076;28;45843;-66
2024/01/27 02:22:15;;;;;;;;;33.00;30.25;;;;;12.93;97.04;102992.63;2096363;28;46377;-66
2024/01/27 02:23:15;;;;;;;;;31.00;29.25;;;;;12.94;96.85;103001.53;2096035;28;46530;-66
2024/01/27 02:24:15;;;;;;;;;25.00;24.00;;;;;12.89;96.95;102995.28;2096350;28;46251;-66
2024/01/27 02:25:15;;;;;;;;;30.25;25.00;;;;;12.87;97.09;102994.41;2096580;28;45597;-67
2024/01/27 02:26:16;;;;;;;;;31.25;26.50;;;;;12.86;97.21;102996.19;2094768;28;45595;-67
2024/01/27 02:27:16;;;;;;;;;25.50;25.00;;;;;12.88;97.15;102998.84;2098836;28;46555;-66
2024/01/27 02:28:17;;;;;;;;;29.75;28.50;;;;;12.87;97.07;103000.63;2096435;28;45948;-66
2024/01/27 02:29:17;;;;;;;;;25.75;24.25;;;;;12.89;97.13;102998.84;2096356;28;46877;-66
2024/01/27 02:30:17;;;;;;;;;27.75;27.00;;;;;12.87;96.76;102987.28;2096249;28;46393;-66
2024/01/27 02:31:18;;;;;;;;;24.50;23.00;;;;;12.86;96.70;102996.19;2095073;28;46659;-66
2024/01/27 02:32:18;;;;;;;;;27.00;25.25;;;;;12.86;96.71;102987.28;2096206;28;46549;-66
2024/01/27 02:33:18;;;;;;;;;25.25;25.00;;;;;12.86;96.93;102992.63;2096288;28;45637;-66
2024/01/27 02:34:19;;;;;;;;;27.50;25.75;;;;;12.88;96.85;102986.41;2096087;28;46298;-66
2024/01/27 02:35:19;;;;;;;;;26.50;24.00;;;;;12.89;97.06;102985.53;2096216;28;46338;-66
2024/01/27 02:36:19;;;;;;;;;32.25;27.00;;;;;12.92;96.98;102982.88;2096419;28;46184;-65
2024/01/27 02:37:20;;;;;;;;;29.50;29.50;;;;;12.94;97.13;102983.75;2095972;28;47001;-65
2024/01/27 02:38:20;;;;;;;;;26.00;25.00;;;;;12.98;97.13;102982.03;2096107;28;46526;-67
2024/01/27 02:39:21;;;;;;;;;33.25;26.00;;;;;13.00;97.05;102987.34;2096001;28;46547;-66
2024/01/27 02:40:21;;;;;;;;;28.75;28.00;;;;;13.01;96.85;102983.81;2099692;28;45707;-66
2024/01/27 02:41:22;;;;;;;;;27.00;27.00;;;;;12.98;96.66;102987.34;2103488;28;46739;-66
2024/01/27 02:42:23;;;;;;;;;28.25;26.00;;;;;12.97;96.48;102988.25;2097066;28;47139;-66
2024/01/27 02:43:23;;;;;;;;;30.20;26.80;;;;;12.94;96.46;102973.09;2099400;28;46946;-67
2024/01/27 02:44:24;;;;;;;;;29.75;28.00;;;;;12.93;96.30;102973.09;2096134;27;46084;-65
2024/01/27 02:45:24;;;;;;;;;24.75;23.25;;;;;12.88;96.13;102978.41;2096307;28;46189;-66
2024/01/27 02:46:24;;;;;;;;;28.75;25.00;;;;;12.85;96.12;102974.84;2096471;28;46551;-65
2024/01/27 02:47:25;;;;;;;;;31.50;28.00;;;;;12.84;96.49;102981.06;2097667;28;46548;-65
2024/01/27 02:48:25;;;;;;;;;26.50;25.50;;;;;12.80;96.38;102980.13;2095101;28;46897;-66
2024/01/27 02:49:25;;;;;;;;;22.75;20.75;;;;;12.82;96.71;102978.38;2096497;28;46598;-68
2024/01/27 02:50:25;;;;;;;;;30.00;25.50;;;;;12.80;96.92;102985.47;2096531;28;46501;-66
2024/01/27 02:51:26;;;;;;;;;25.50;24.50;;;;;12.78;96.87;102979.25;2097459;28;45924;-66
2024/01/27 02:52:27;;;;;;;;;25.75;25.50;;;;;12.78;97.08;102992.56;2097070;28;46472;-66
2024/01/27 02:53:27;;;;;;;;;28.60;26.80;;;;;12.79;96.98;102989.03;2087352;28;46460;-65
2024/01/27 02:54:27;;;;;;;;;31.00;30.00;;;;;12.78;97.08;102981.03;2088820;28;46296;-66
2024/01/27 02:55:28;;;;;;;;;25.00;25.00;;;;;12.78;97.19;102983.69;2095703;28;46274;-66
2024/01/27 02:56:28;;;;;;;;;29.00;29.00;;;;;12.81;97.32;102983.69;2097529;28;46282;-66
2024/01/27 02:57:28;;;;;;;;;23.75;23.75;;;;;12.80;97.12;102979.25;2097528;28;46359;-66
2024/01/27 02:58:29;;;;;;;;;29.00;27.00;;;;;12.77;97.07;102974.81;2094122;28;46647;-66
2024/01/27 02:59:29;;;;;;;;;26.00;25.00;;;;;12.74;96.94;102974.78;2090844;28;46809;-66
2024/01/27 03:00:29;;;;;;;;;28.75;27.25;;;;;12.75;96.81;102976.56;2094085;28;46266;-67
2024/01/27 03:01:30;;;;;;;;;30.25;29.00;;;;;12.76;97.05;102977.47;2097137;28;46211;-66
2024/01/27 03:02:30;;;;;;;;;20.50;19.00;;;;;12.69;97.08;102971.19;2098006;28;46188;-66
2024/01/27 03:03:31;;;;;;;;;32.75;28.75;;;;;12.71;97.43;102981.88;2097232;28;46336;-66
2024/01/27 03:04:31;;;;;;;;;32.50;31.00;;;;;12.70;97.40;102980.06;2098131;28;47221;-66
2024/01/27 03:05:31;;;;;;;;;34.25;31.25;;;;;12.66;97.29;102982.72;2097000;28;45067;-66
2024/01/27 03:06:32;;;;;;;;;32.75;31.75;;;;;12.60;97.80;102981.81;2097012;28;46685;-65
2024/01/27 03:07:32;;;;;;;;;10.25;7.25;;;;;12.63;98.18;102976.50;2097556;28;46224;-66
2024/01/27 03:08:32;;;;;;;;;35.25;32.50;;;;;12.60;97.97;102979.16;2098247;28;46199;-66
2024/01/27 03:09:33;;;;;;;;;32.00;31.50;;;;;12.60;97.92;102974.72;2097575;28;46697;-66
2024/01/27 03:10:33;;;;;;;;;39.50;34.50;;;;;12.57;97.79;102981.78;2097161;28;46577;-66
2024/01/27 03:11:33;;;;;;;;;40.00;34.00;;;;;12.54;97.83;102984.44;2096837;28;46649;-67
2024/01/27 03:12:34;;;;;;;;;38.75;34.00;;;;;12.54;98.25;102980.00;2097893;28;45771;-66
2024/01/27 03:13:34;;;;;;;;;39.50;34.50;;;;;12.54;98.20;102980.00;2097478;28;46125;-66
2024/01/27 03:14:34;;;;;;;;;37.00;31.75;;;;;12.60;98.63;102973.81;2097119;28;46380;-66
2024/01/27 03:15:35;;;;;;;;;34.25;33.00;;;;;12.63;98.58;102968.50;2097001;28;46468;-66
2024/01/27 03:16:35;;;;;;;;;37.00;34.00;;;;;12.66;98.52;102971.19;2095466;28;46243;-67
2024/01/27 03:17:36;;;;;;;;;34.50;32.25;;;;;12.72;98.79;102967.69;2096234;28;48204;-66
2024/01/27 03:18:37;;;;;;;;;32.75;31.75;;;;;12.72;98.87;102962.34;2094949;28;45205;-66
2024/01/27 03:19:37;;;;;;;;;38.00;33.75;;;;;12.76;98.47;102969.47;2097419;28;46235;-66
2024/01/27 03:20:37;;;;;;;;;36.50;33.50;;;;;12.77;98.25;102966.81;2096871;28;44965;-67
2024/01/27 03:21:37;;;;;;;;;40.50;35.50;;;;;12.75;98.15;102971.25;2096859;28;45828;-66
2024/01/27 03:22:40;;;;;;;;;35.25;34.00;;;;;12.73;98.06;102969.47;2097078;28;46697;-65
2024/01/27 03:23:40;;;;;;;;;41.20;34.80;;;;;12.70;98.14;102969.41;2097735;28;46584;-66
2024/01/27 03:24:41;;;;;;;;;37.50;33.50;;;;;12.69;97.97;102963.19;2096495;28;46201;-65
2024/01/27 03:25:41;;;;;;;;;41.00;36.20;;;;;12.68;97.96;102962.31;2096855;28;47013;-66
2024/01/27 03:26:42;;;;;;;;;37.50;34.00;;;;;12.66;98.24;102958.75;2097923;28;46329;-67
2024/01/27 03:27:42;;;;;;;;;32.00;29.25;;;;;12.65;98.51;102962.31;2097930;28;46450;-66
2024/01/27 03:28:42;;;;;;;;;15.25;15.25;;;;;12.70;98.45;102964.09;2097875;28;46637;-66
2024/01/27 03:29:43;;;;;;;;;40.25;34.00;;;;;12.69;98.18;102955.22;2098070;28;46362;-66
2024/01/27 03:30:43;;;;;;;;;34.00;31.75;;;;;12.70;98.07;102959.66;2097209;28;46541;-66
2024/01/27 03:31:43;;;;;;;;;39.50;34.50;;;;;12.70;97.98;102958.75;2097392;28;46601;-66
2024/01/27 03:32:44;;;;;;;;;42.25;35.75;;;;;12.69;98.46;102957.88;2097227;28;46381;-65
2024/01/27 03:33:44;;;;;;;;;40.00;34.50;;;;;12.72;98.30;102967.69;2097336;28;46460;-66
2024/01/27 03:34:45;;;;;;;;;39.75;34.75;;;;;12.71;98.32;102968.56;2094186;28;46250;-65
2024/01/27 03:35:45;;;;;;;;;41.00;36.50;;;;;12.70;98.31;102967.66;2097185;28;47127;-65
2024/01/27 03:36:49;;;;;;;;;37.00;33.50;;;;;12.71;98.32;102963.25;2097347;28;45814;-66
2024/01/27 03:37:49;;;;;;;;;30.40;28.80;;;;;12.66;98.07;102963.19;2096949;28;46817;-65
2024/01/27 03:38:49;;;;;;;;;36.00;32.75;;;;;12.68;98.18;102964.97;2097504;28;46837;-66
2024/01/27 03:39:50;;;;;;;;;37.75;33.50;;;;;12.65;97.98;102961.41;2097264;28;46744;-66
2024/01/27 03:40:50;;;;;;;;;39.25;33.75;;;;;12.63;98.09;102963.19;2099016;28;48057;-66
2024/01/27 03:41:50;;;;;;;;;39.00;33.00;;;;;12.63;98.16;102960.53;2105828;27;46410;-66
2024/01/27 03:42:51;;;;;;;;;32.25;31.50;;;;;12.63;98.17;102961.41;2097614;27;46766;-66
2024/01/27 03:43:51;;;;;;;;;33.00;31.50;;;;;12.62;98.32;102958.75;2078947;28;46617;-65
2024/01/27 03:44:51;;;;;;;;;39.25;34.50;;;;;12.61;98.00;102960.50;2079482;28;46452;-65
2024/01/27 03:45:52;;;;;;;;;37.00;33.75;;;;;12.59;98.11;102953.41;2097130;28;46619;-66
2024/01/27 03:46:52;;;;;;;;;43.50;34.75;;;;;12.56;98.36;102964.00;2097461;28;46673;-66
2024/01/27 03:47:52;;;;;;;;;28.00;28.00;;;;;12.54;98.58;102960.47;2097140;28;46820;-66
2024/01/27 03:48:53;;;;;;;;;33.00;32.00;;;;;12.51;98.38;102961.34;2097050;28;46177;-66
2024/01/27 03:49:53;;;;;;;;;31.50;31.50;;;;;12.49;98.57;102965.78;2096048;28;45777;-66
2024/01/27 03:50:53;;;;;;;;;33.50;30.00;;;;;12.48;98.94;102964.00;2097068;28;46551;-65
2024/01/27 03:51:54;;;;;;;;;32.00;31.75;;;;;12.44;98.92;102962.16;2093886;28;46568;-66
2024/01/27 03:52:54;;;;;;;;;30.75;30.75;;;;;12.45;99.23;102955.06;2095748;28;46832;-65
2024/01/27 03:53:54;;;;;;;;;30.50;30.50;;;;;12.45;99.14;102955.06;2096033;28;46567;-66
2024/01/27 03:54:55;;;;;;;;;29.25;28.25;;;;;12.45;99.07;102956.00;2097488;28;46518;-67
2024/01/27 03:56:02;;;;;;;;;31.75;30.75;;;;;12.42;99.35;102953.28;2097209;28;46318;-66
2024/01/27 03:57:03;;;;;;;;;30.80;30.40;;;;;12.43;99.14;102946.19;2097225;28;47059;-66
2024/01/27 03:58:03;;;;;;;;;29.00;28.75;;;;;12.41;99.44;102947.94;2097124;28;46429;-66
2024/01/27 03:59:06;;;;;;;;;28.75;28.00;;;;;12.41;99.51;102940.84;2097011;28;46518;-66
2024/01/27 04:00:07;;;;;;;;;32.80;31.00;;;;;12.36;99.87;102943.50;2097034;28;46556;-67
2024/01/27 04:01:07;;;;;;;;;31.80;31.40;;;;;12.38;99.79;102949.72;2100999;28;46722;-66
2024/01/27 04:02:08;;;;;;;;;33.75;31.25;;;;;12.39;100.00;102950.59;2101573;27;46308;-67
2024/01/27 04:03:09;;;;;;;;;33.00;31.00;;;;;12.40;100.00;102951.50;2103210;28;45824;-67
2024/01/27 04:04:09;;;;;;;;;35.40;31.00;;;;;12.41;100.00;102953.28;2097012;28;47245;-67
2024/01/27 04:05:10;;;;;;;;;33.00;28.75;;;;;12.43;100.00;102951.50;2094736;28;46340;-66
2024/01/27 04:06:10;;;;;;;;;38.00;33.50;;;;;12.39;99.64;102950.59;2093219;28;46960;-66
2024/01/27 04:07:10;;;;;;;;;37.50;33.00;;;;;12.37;99.85;102950.59;2094219;28;46711;-66
2024/01/27 04:08:11;;;;;;;;;38.25;32.25;;;;;12.33;100.00;102950.59;2096650;28;46231;-66
2024/01/27 04:09:11;;;;;;;;;41.00;33.25;;;;;12.38;100.00;102952.38;2095481;28;46507;-66
2024/01/27 04:10:11;;;;;;;;;42.50;36.25;;;;;12.33;100.00;102953.25;2095562;28;46926;-66
2024/01/27 04:11:22;;;;;;;;;40.75;35.25;;;;;12.41;100.00;102953.28;2092460;28;45426;-66
2024/01/27 04:12:22;;;;;;;;;36.20;33.80;;;;;12.43;100.00;102960.38;2095845;28;46633;-65
2024/01/27 04:13:22;;;;;;;;;36.00;34.00;;;;;12.37;100.00;102955.94;2096943;28;47188;-66
2024/01/27 04:14:23;;;;;;;;;32.50;27.50;;;;;12.41;100.00;102954.16;2096526;28;46536;-66
2024/01/27 04:15:23;;;;;;;;;35.50;34.00;;;;;12.44;100.00;102955.94;2095954;28;45848;-66
2024/01/27 04:16:23;;;;;;;;;33.50;30.25;;;;;12.46;100.00;102955.09;2094900;28;46021;-66
2024/01/27 04:17:24;;;;;;;;;32.00;28.50;;;;;12.48;100.00;102955.09;2096610;28;46077;-66
2024/01/27 04:18:24;;;;;;;;;31.50;30.50;;;;;12.53;100.00;102961.34;2096880;28;46831;-67
2024/01/27 04:19:24;;;;;;;;;29.25;28.00;;;;;12.52;100.00;102963.13;2096321;28;46381;-66
2024/01/27 04:20:24;;;;;;;;;33.25;30.75;;;;;12.51;99.86;102960.44;2100597;28;46545;-66
2024/01/27 04:21:25;;;;;;;;;26.00;26.00;;;;;12.49;100.00;102960.44;2097110;28;46420;-67
2024/01/27 04:22:25;;;;;;;;;33.50;32.50;;;;;12.48;100.00;102956.00;2096670;28;46375;-67
2024/01/27 04:23:25;;;;;;;;;39.75;35.50;;;;;12.47;99.91;102956.88;2095721;28;46169;-67
2024/01/27 04:24:26;;;;;;;;;36.50;33.00;;;;;12.45;99.96;102957.72;2096953;28;46319;-66
2024/01/27 04:25:26;;;;;;;;;33.75;31.50;;;;;12.46;100.00;102965.75;2104623;28;44924;-66
2024/01/27 04:26:27;;;;;;;;;31.75;30.75;;;;;12.44;100.00;102964.81;2099147;27;46250;-65
2024/01/27 04:27:28;;;;;;;;;32.50;30.00;;;;;12.41;99.88;102967.47;2097021;28;46404;-66
2024/01/27 04:28:30;;;;;;;;;32.00;30.75;;;;;12.37;100.00;102961.25;2097617;28;46909;-65
2024/01/27 04:29:30;;;;;;;;;33.00;29.60;;;;;12.33;99.75;102954.13;2097331;28;46832;-65
2024/01/27 04:30:30;;;;;;;;;31.25;30.75;;;;;12.30;99.81;102950.53;2097499;28;46820;-66
2024/01/27 04:31:31;;;;;;;;;25.50;22.25;;;;;12.27;99.94;102962.06;2097067;28;45926;-66
2024/01/27 04:32:31;;;;;;;;;31.25;29.75;;;;;12.20;100.00;102954.94;2096719;28;46170;-66
2024/01/27 04:33:32;;;;;;;;;29.25;26.25;;;;;12.21;100.00;102955.81;2097086;28;45861;-65
2024/01/27 04:34:32;;;;;;;;;30.00;28.50;;;;;12.21;100.00;102967.34;2095455;28;46210;-66
2024/01/27 04:35:33;;;;;;;;;30.25;29.25;;;;;12.20;100.00;102972.69;2094590;28;46643;-66